LIPI

Rivolto Air Base Airport

Codroipo, Italy
TAF LIPI 230500Z 2306/2315 20003KT 5000 SN BR SCT015 BKN030
Issued Valid From Valid To
Jan-23 @ 05:00 UTC
(2 hours ago)
Jan-23 @ 06:00 UTC
(an hour ago)
Jan-23 @ 15:00 UTC
(in 8 hours)
Jan-23 @ 06:00 to Jan-23 @ 15:00
TAF LIPI 230500Z 2306/2315 20003KT 5000 SN BR SCT015 BKN030
Wind Visibility Clouds Conditions
200° at 3 knots 5,005 meters
  • Scattered at 1,500' AGL
  • Broken at 3,000' AGL
  • Snow
  • Mist
TAF LIPI 230500Z 2306/2315 20003KT 5000 SN BR SCT015 BKN030
Issued Jan-23 @ 05:00 UTC
(2 hours ago)
Valid From Jan-23 @ 06:00 UTC
(an hour ago)
Valid To Jan-23 @ 15:00 UTC
(in 8 hours)
Jan-23 @ 06:00 - Jan-23 @ 15:00
Wind Visibility
200° at 3 knots 5,005 meters
Clouds
  • Scattered at 1,500' AGL
  • Broken at 3,000' AGL
Conditions
  • Snow
  • Mist